Time;durP1;ratioP1;P1;durP2;ratioP2;P2;SDS_P1;SDS_P2;PMS_P1;PMS_P2;Temp;Humidity;BMP_temperature;BMP_pressure;BME280_temperature;BME280_humidity;BME280_pressure;Samples;Min_cycle;Max_cycle;Signal;HPM_P1;HPM_P2
2024/02/24 00:00:47;;;;;;;4.27;3.20;;;;;;;;;;5048426;28;20174;-72
2024/02/24 00:03:12;;;;;;;4.00;3.03;;;;;;;;;;5041343;28;20174;-71
2024/02/24 00:05:37;;;;;;;5.57;3.17;;;;;;;;;;5041017;28;20211;-71
2024/02/24 00:08:03;;;;;;;3.77;2.73;;;;;;;;;;5029577;28;20173;-72
2024/02/24 00:10:28;;;;;;;4.83;2.93;;;;;;;;;;5044291;28;20261;-71
2024/02/24 00:12:53;;;;;;;5.90;2.80;;;;;;;;;;5038990;28;20198;-71
2024/02/24 00:15:18;;;;;;;5.27;2.60;;;;;;;;;;5041469;28;20648;-71
2024/02/24 00:17:43;;;;;;;5.13;1.83;;;;;;;;;;5041924;28;20261;-71
2024/02/24 00:20:09;;;;;;;4.70;2.17;;;;;;;;;;5049992;28;20183;-71
2024/02/24 00:22:35;;;;;;;3.90;2.20;;;;;;;;;;5030504;28;20174;-71
2024/02/24 00:25:00;;;;;;;3.00;2.23;;;;;;;;;;5031271;28;20244;-71
2024/02/24 00:27:25;;;;;;;3.80;2.13;;;;;;;;;;5025127;28;20258;-72
2024/02/24 00:29:50;;;;;;;3.83;2.00;;;;;;;;;;5027606;28;20757;-74
2024/02/24 00:32:16;;;;;;;2.60;2.00;;;;;;;;;;5042481;28;20206;-72
2024/02/24 00:34:41;;;;;;;2.70;1.50;;;;;;;;;;5024511;28;20182;-71
2024/02/24 00:37:06;;;;;;;2.97;1.43;;;;;;;;;;5042382;28;20169;-72
2024/02/24 00:39:31;;;;;;;2.60;1.70;;;;;;;;;;5040090;28;20200;-72
2024/02/24 00:41:57;;;;;;;1.80;1.43;;;;;;;;;;5046685;28;20178;-72
2024/02/24 00:44:22;;;;;;;2.80;1.70;;;;;;;;;;5048078;28;20174;-72
2024/02/24 00:46:47;;;;;;;2.80;1.57;;;;;;;;;;5028608;28;20213;-73
2024/02/24 00:49:12;;;;;;;5.27;2.10;;;;;;;;;;5030633;28;21202;-72
2024/02/24 00:51:37;;;;;;;5.53;1.60;;;;;;;;;;5029089;28;21306;-72
2024/02/24 00:54:04;;;;;;;3.23;1.83;;;;;;;;;;5030846;28;20628;-71
2024/02/24 00:56:29;;;;;;;2.23;1.63;;;;;;;;;;5023893;28;20655;-72
2024/02/24 00:58:54;;;;;;;2.97;1.50;;;;;;;;;;5047746;28;20212;-72
2024/02/24 01:01:19;;;;;;;3.27;1.67;;;;;;;;;;5033422;28;20177;-71
2024/02/24 01:03:45;;;;;;;3.17;1.73;;;;;;;;;;5048848;28;20174;-72
2024/02/24 01:06:10;;;;;;;3.27;1.60;;;;;;;;;;5048963;28;20209;-72
2024/02/24 01:08:35;;;;;;;4.00;1.80;;;;;;;;;;5043765;28;20464;-72
2024/02/24 01:11:00;;;;;;;4.47;2.20;;;;;;;;;;5028330;28;20181;-72
2024/02/24 01:13:28;;;;;;;2.87;1.80;;;;;;;;;;5053315;28;20673;-72
2024/02/24 01:15:53;;;;;;;2.87;1.90;;;;;;;;;;5025852;28;20195;-72
2024/02/24 01:18:20;;;;;;;2.80;1.67;;;;;;;;;;5026361;28;20238;-71
2024/02/24 01:20:48;;;;;;;2.47;1.90;;;;;;;;;;5047351;28;20166;-72
2024/02/24 01:23:14;;;;;;;3.70;1.70;;;;;;;;;;5029578;28;20165;-72
2024/02/24 01:25:39;;;;;;;5.13;1.80;;;;;;;;;;5044149;28;20232;-71
2024/02/24 01:28:05;;;;;;;4.07;2.10;;;;;;;;;;5049332;28;20178;-72
2024/02/24 01:30:30;;;;;;;3.80;2.60;;;;;;;;;;5050038;28;20193;-73
2024/02/24 01:32:55;;;;;;;3.90;2.30;;;;;;;;;;5031802;28;20565;-73
2024/02/24 01:35:21;;;;;;;4.60;2.07;;;;;;;;;;5050522;28;20197;-72
2024/02/24 01:37:46;;;;;;;2.33;1.90;;;;;;;;;;5026595;28;20206;-72
2024/02/24 01:40:11;;;;;;;3.03;1.77;;;;;;;;;;5043093;28;20180;-71
2024/02/24 01:42:36;;;;;;;2.73;2.10;;;;;;;;;;5044521;28;20178;-71
2024/02/24 01:45:02;;;;;;;2.60;2.10;;;;;;;;;;5046296;28;20201;-71
2024/02/24 01:47:27;;;;;;;2.73;1.80;;;;;;;;;;5025272;28;20206;-72
2024/02/24 01:49:53;;;;;;;3.77;2.10;;;;;;;;;;5044759;28;20178;-70
2024/02/24 01:52:19;;;;;;;3.40;2.07;;;;;;;;;;5029441;28;20205;-74
2024/02/24 01:54:44;;;;;;;2.43;1.97;;;;;;;;;;5044771;28;20180;-71
2024/02/24 01:57:09;;;;;;;4.40;2.07;;;;;;;;;;5031982;28;20177;-71
2024/02/24 01:59:35;;;;;;;6.10;2.70;;;;;;;;;;5044790;28;20174;-71
2024/02/24 02:02:00;;;;;;;4.50;2.30;;;;;;;;;;5031015;28;20170;-71
2024/02/24 02:04:26;;;;;;;5.20;2.10;;;;;;;;;;5042218;28;20639;-71
2024/02/24 02:06:51;;;;;;;2.23;1.77;;;;;;;;;;5025109;23;20680;-71
2024/02/24 02:09:16;;;;;;;7.87;2.53;;;;;;;;;;5025570;28;20213;-72
2024/02/24 02:11:43;;;;;;;2.70;1.90;;;;;;;;;;5011254;28;20210;-71
2024/02/24 02:14:11;;;;;;;3.17;1.77;;;;;;;;;;5025070;28;20646;-72
2024/02/24 02:16:36;;;;;;;3.50;1.73;;;;;;;;;;5017551;28;20194;-71
2024/02/24 02:19:02;;;;;;;2.20;1.70;;;;;;;;;;5031403;28;20172;-71
2024/02/24 02:21:28;;;;;;;4.90;2.30;;;;;;;;;;5031690;28;20649;-72
2024/02/24 02:23:53;;;;;;;3.73;2.53;;;;;;;;;;5007104;28;20175;-71
2024/02/24 02:26:19;;;;;;;2.80;2.07;;;;;;;;;;5027848;28;20261;-72
2024/02/24 02:28:44;;;;;;;3.60;2.43;;;;;;;;;;5030761;28;20197;-74
2024/02/24 02:31:09;;;;;;;3.97;2.33;;;;;;;;;;5009579;28;20183;-71
2024/02/24 02:33:35;;;;;;;6.60;3.60;;;;;;;;;;5031763;28;20554;-72
2024/02/24 02:36:01;;;;;;;3.40;2.47;;;;;;;;;;5031008;28;20615;-71
2024/02/24 02:38:26;;;;;;;3.80;2.37;;;;;;;;;;5013243;28;20194;-72
2024/02/24 02:40:51;;;;;;;4.97;2.60;;;;;;;;;;5030498;28;20171;-71
2024/02/24 02:43:16;;;;;;;3.90;2.53;;;;;;;;;;5024767;28;20190;-71
2024/02/24 02:45:42;;;;;;;5.60;2.10;;;;;;;;;;5028471;28;20244;-72
2024/02/24 02:48:07;;;;;;;5.23;3.50;;;;;;;;;;5030832;28;20170;-72
2024/02/24 02:50:34;;;;;;;4.50;2.90;;;;;;;;;;5029399;28;20182;-72
2024/02/24 02:52:59;;;;;;;4.23;2.67;;;;;;;;;;5013614;28;20273;-72
2024/02/24 02:55:24;;;;;;;3.80;2.57;;;;;;;;;;5028401;28;20198;-71
2024/02/24 02:57:50;;;;;;;4.27;2.43;;;;;;;;;;5031438;28;20177;-72
2024/02/24 03:00:15;;;;;;;3.70;2.90;;;;;;;;;;5022473;28;20189;-72
2024/02/24 03:02:40;;;;;;;4.53;2.23;;;;;;;;;;5010867;28;20185;-71
2024/02/24 03:05:06;;;;;;;3.03;2.33;;;;;;;;;;5030298;28;20198;-72
2024/02/24 03:07:31;;;;;;;4.40;2.73;;;;;;;;;;5030539;28;20662;-72
2024/02/24 03:09:56;;;;;;;3.40;2.60;;;;;;;;;;5028132;28;20565;-73
2024/02/24 03:12:21;;;;;;;11.37;3.40;;;;;;;;;;5030515;28;20209;-72
2024/02/24 03:14:46;;;;;;;5.50;3.40;;;;;;;;;;5028755;28;20174;-72
2024/02/24 03:17:12;;;;;;;4.27;2.90;;;;;;;;;;5030581;28;20236;-72
2024/02/24 03:19:40;;;;;;;4.60;2.83;;;;;;;;;;5029490;28;20173;-72
2024/02/24 03:22:05;;;;;;;4.63;2.80;;;;;;;;;;5024954;28;21116;-71
2024/02/24 03:24:31;;;;;;;3.97;2.60;;;;;;;;;;5030729;28;20553;-72
2024/02/24 03:26:56;;;;;;;3.93;2.87;;;;;;;;;;5029259;28;20641;-71
2024/02/24 03:29:21;;;;;;;3.10;2.70;;;;;;;;;;5008271;28;20745;-71
2024/02/24 03:31:46;;;;;;;3.33;3.03;;;;;;;;;;5029424;28;20647;-72
2024/02/24 03:34:12;;;;;;;5.73;2.57;;;;;;;;;;5030220;28;20184;-72
2024/02/24 03:36:37;;;;;;;6.50;3.27;;;;;;;;;;5026670;28;20203;-72
2024/02/24 03:39:02;;;;;;;5.27;2.63;;;;;;;;;;5027447;28;20178;-72
2024/02/24 03:41:31;;;;;;;5.93;2.83;;;;;;;;;;5011777;28;20541;-72
2024/02/24 03:43:56;;;;;;;6.40;3.23;;;;;;;;;;5009999;28;20678;-72
2024/02/24 03:46:21;;;;;;;3.47;2.90;;;;;;;;;;5012757;28;20246;-72
2024/02/24 03:48:47;;;;;;;3.77;2.90;;;;;;;;;;5009986;28;20631;-71
2024/02/24 03:51:12;;;;;;;3.57;2.70;;;;;;;;;;5024373;28;20178;-73
2024/02/24 03:53:37;;;;;;;4.57;3.20;;;;;;;;;;5026826;28;20268;-72
2024/02/24 03:56:02;;;;;;;6.53;3.57;;;;;;;;;;5027253;28;20240;-72
2024/02/24 03:58:28;;;;;;;4.00;2.97;;;;;;;;;;5011541;28;20186;-72
2024/02/24 04:00:54;;;;;;;4.03;3.13;;;;;;;;;;5023221;28;20700;-71
2024/02/24 04:03:19;;;;;;;7.17;3.13;;;;;;;;;;5030124;28;20644;-71
2024/02/24 04:05:46;;;;;;;4.97;2.87;;;;;;;;;;5029374;28;20312;-72
2024/02/24 04:08:11;;;;;;;3.70;3.20;;;;;;;;;;5026585;28;20183;-72
2024/02/24 04:10:36;;;;;;;4.03;3.07;;;;;;;;;;5027884;28;20185;-71
2024/02/24 04:13:02;;;;;;;4.17;2.80;;;;;;;;;;5027485;28;20195;-72
2024/02/24 04:15:27;;;;;;;5.13;2.93;;;;;;;;;;5032680;28;20191;-72
2024/02/24 04:17:52;;;;;;;4.70;3.30;;;;;;;;;;5033202;28;20607;-72
2024/02/24 04:20:18;;;;;;;4.57;3.00;;;;;;;;;;5009197;28;20181;-72
2024/02/24 04:22:43;;;;;;;7.67;3.60;;;;;;;;;;5014181;28;20189;-72
2024/02/24 04:25:08;;;;;;;6.50;3.40;;;;;;;;;;5034079;28;20190;-72
2024/02/24 04:27:34;;;;;;;4.63;3.10;;;;;;;;;;5016555;28;20180;-72
2024/02/24 04:29:59;;;;;;;5.73;3.50;;;;;;;;;;5010458;28;20543;-72
2024/02/24 04:32:24;;;;;;;6.20;3.73;;;;;;;;;;5032375;28;20596;-72
2024/02/24 04:34:49;;;;;;;4.30;3.27;;;;;;;;;;5030988;28;20518;-72
2024/02/24 04:37:15;;;;;;;5.07;3.63;;;;;;;;;;5033614;28;20691;-72
2024/02/24 04:39:40;;;;;;;6.30;3.63;;;;;;;;;;5032392;28;20174;-72
2024/02/24 04:42:05;;;;;;;6.27;3.77;;;;;;;;;;5026786;28;20228;-72
2024/02/24 04:44:31;;;;;;;6.40;4.10;;;;;;;;;;5033749;28;20182;-72
2024/02/24 04:46:56;;;;;;;5.90;3.83;;;;;;;;;;5034088;28;20198;-71
2024/02/24 04:49:21;;;;;;;5.37;4.30;;;;;;;;;;5032071;28;20171;-72
2024/02/24 04:51:46;;;;;;;5.10;3.53;;;;;;;;;;5029269;28;20194;-71
2024/02/24 04:54:12;;;;;;;4.33;3.33;;;;;;;;;;5026204;28;20549;-72
2024/02/24 04:56:37;;;;;;;5.53;3.67;;;;;;;;;;5015820;28;20201;-72
2024/02/24 04:59:02;;;;;;;6.93;3.43;;;;;;;;;;5031125;28;20178;-72
2024/02/24 05:01:27;;;;;;;6.80;3.90;;;;;;;;;;5033233;28;20182;-72
2024/02/24 05:03:52;;;;;;;8.87;4.37;;;;;;;;;;5030263;28;20636;-72
2024/02/24 05:06:18;;;;;;;4.83;3.63;;;;;;;;;;5028282;28;20206;-72
2024/02/24 05:08:43;;;;;;;9.67;4.00;;;;;;;;;;5033295;28;20270;-72
2024/02/24 05:11:09;;;;;;;4.97;3.80;;;;;;;;;;5029785;28;20261;-72
2024/02/24 05:13:35;;;;;;;5.60;3.80;;;;;;;;;;5032497;28;20213;-72
2024/02/24 05:16:03;;;;;;;8.07;4.27;;;;;;;;;;5030513;28;20244;-71
2024/02/24 05:18:28;;;;;;;9.13;4.40;;;;;;;;;;5012274;28;20194;-71
2024/02/24 05:20:54;;;;;;;5.00;3.80;;;;;;;;;;5010492;28;20183;-71
2024/02/24 05:23:19;;;;;;;7.43;4.03;;;;;;;;;;5027435;28;20562;-71
2024/02/24 05:25:44;;;;;;;9.17;5.00;;;;;;;;;;5029936;28;20209;-71
2024/02/24 05:28:09;;;;;;;8.63;4.70;;;;;;;;;;5031639;28;20218;-72
2024/02/24 05:30:34;;;;;;;5.83;4.17;;;;;;;;;;5014574;28;20622;-72
2024/02/24 05:32:59;;;;;;;8.67;4.90;;;;;;;;;;5031604;28;20198;-72
2024/02/24 05:35:25;;;;;;;8.17;4.60;;;;;;;;;;5030533;28;20197;-72
2024/02/24 05:37:50;;;;;;;13.40;5.47;;;;;;;;;;5030911;28;20179;-71
2024/02/24 05:40:17;;;;;;;10.33;4.83;;;;;;;;;;5036162;28;20175;-71
2024/02/24 05:42:42;;;;;;;11.07;5.77;;;;;;;;;;5033203;28;20185;-71
2024/02/24 05:45:08;;;;;;;10.33;5.67;;;;;;;;;;5016346;28;20214;-71
2024/02/24 05:47:33;;;;;;;8.70;5.13;;;;;;;;;;5034364;28;20178;-72
2024/02/24 05:49:59;;;;;;;11.17;5.57;;;;;;;;;;5032329;28;20236;-72
2024/02/24 05:52:24;;;;;;;8.10;5.27;;;;;;;;;;5028936;28;20225;-71
2024/02/24 05:54:49;;;;;;;7.97;5.33;;;;;;;;;;5014575;28;20225;-71
2024/02/24 05:57:15;;;;;;;9.63;5.80;;;;;;;;;;5027693;28;20185;-72
2024/02/24 05:59:40;;;;;;;9.47;5.37;;;;;;;;;;5030978;28;20167;-72
2024/02/24 06:02:05;;;;;;;10.40;6.10;;;;;;;;;;5029633;28;20244;-72
2024/02/24 06:04:31;;;;;;;10.43;6.80;;;;;;;;;;5026677;28;20658;-72
2024/02/24 06:06:57;;;;;;;12.73;6.70;;;;;;;;;;5030246;28;20587;-72
2024/02/24 06:09:22;;;;;;;14.33;6.13;;;;;;;;;;5042058;28;20182;-72
2024/02/24 06:11:47;;;;;;;9.87;6.10;;;;;;;;;;5019353;28;20198;-72
2024/02/24 06:14:13;;;;;;;9.87;5.70;;;;;;;;;;5024723;28;20188;-72
2024/02/24 06:16:38;;;;;;;16.10;7.30;;;;;;;;;;5035478;28;20194;-73
2024/02/24 06:19:03;;;;;;;10.33;5.80;;;;;;;;;;5031422;28;20237;-72
2024/02/24 06:21:30;;;;;;;13.13;7.00;;;;;;;;;;5029485;28;20654;-72
2024/02/24 06:23:55;;;;;;;12.17;6.77;;;;;;;;;;5032873;28;20182;-72
2024/02/24 06:26:20;;;;;;;14.97;7.13;;;;;;;;;;5013578;28;20283;-72
2024/02/24 06:28:45;;;;;;;13.50;7.33;;;;;;;;;;5027454;28;20552;-73
2024/02/24 06:31:13;;;;;;;14.27;7.57;;;;;;;;;;5025017;28;20257;-72
2024/02/24 06:33:38;;;;;;;11.60;6.53;;;;;;;;;;5028107;28;20202;-72
2024/02/24 06:36:04;;;;;;;12.33;7.07;;;;;;;;;;5030361;28;20206;-72
2024/02/24 06:38:29;;;;;;;15.60;7.70;;;;;;;;;;5014496;28;20181;-72
2024/02/24 06:40:54;;;;;;;14.13;7.37;;;;;;;;;;5031699;28;20228;-72
2024/02/24 06:43:20;;;;;;;14.00;8.13;;;;;;;;;;5009629;28;20190;-72
2024/02/24 06:45:45;;;;;;;14.37;8.20;;;;;;;;;;5029405;28;20205;-72
2024/02/24 06:48:10;;;;;;;14.80;8.67;;;;;;;;;;5012593;28;20205;-72
2024/02/24 06:50:35;;;;;;;18.30;8.53;;;;;;;;;;5031088;28;20563;-72
2024/02/24 06:53:01;;;;;;;13.47;8.30;;;;;;;;;;5012642;28;20286;-72
2024/02/24 06:55:26;;;;;;;15.33;7.90;;;;;;;;;;5029697;28;20281;-72
2024/02/24 06:57:51;;;;;;;16.87;8.40;;;;;;;;;;5028834;28;20182;-71
2024/02/24 07:00:16;;;;;;;14.77;8.97;;;;;;;;;;5009895;28;20243;-72
2024/02/24 07:02:42;;;;;;;15.30;8.67;;;;;;;;;;5029549;28;20185;-72
2024/02/24 07:05:08;;;;;;;13.73;8.40;;;;;;;;;;5024131;28;20828;-71
2024/02/24 07:07:33;;;;;;;15.73;8.97;;;;;;;;;;5010880;28;20174;-72
2024/02/24 07:09:59;;;;;;;15.53;8.03;;;;;;;;;;5027961;28;20506;-72
2024/02/24 07:12:24;;;;;;;18.10;8.10;;;;;;;;;;5030769;28;20697;-72
2024/02/24 07:14:50;;;;;;;15.93;8.90;;;;;;;;;;5030876;28;20604;-72
2024/02/24 07:17:15;;;;;;;14.97;8.50;;;;;;;;;;5027547;28;20202;-72
2024/02/24 07:19:40;;;;;;;13.07;7.67;;;;;;;;;;5013207;28;20689;-72
2024/02/24 07:22:05;;;;;;;16.07;9.00;;;;;;;;;;5026826;28;20190;-73
2024/02/24 07:24:30;;;;;;;13.73;8.30;;;;;;;;;;5028159;28;20565;-71
2024/02/24 07:26:56;;;;;;;13.60;7.60;;;;;;;;;;5030410;28;20237;-72
2024/02/24 07:29:21;;;;;;;11.83;8.03;;;;;;;;;;5025091;28;20190;-71
2024/02/24 07:31:47;;;;;;;10.70;7.30;;;;;;;;;;5006572;28;20682;-72
2024/02/24 07:34:12;;;;;;;13.43;8.10;;;;;;;;;;5029775;28;20264;-72
2024/02/24 07:36:37;;;;;;;14.27;6.57;;;;;;;;;;5028435;28;20760;-72
2024/02/24 07:39:04;;;;;;;15.10;7.87;;;;;;;;;;5030914;28;20186;-73
2024/02/24 07:41:30;;;;;;;11.30;7.37;;;;;;;;;;5026325;28;20182;-72
2024/02/24 07:43:55;;;;;;;11.40;7.50;;;;;;;;;;5030042;28;20224;-72
2024/02/24 07:46:27;;;;;;;11.40;6.90;;;;;;;;;;5025473;28;20194;-72
2024/02/24 07:48:53;;;;;;;11.33;7.30;;;;;;;;;;5007899;28;20179;-72
2024/02/24 07:51:18;;;;;;;11.53;6.87;;;;;;;;;;5029710;28;20182;-71
2024/02/24 07:53:43;;;;;;;10.80;6.90;;;;;;;;;;5030274;28;20212;-72
2024/02/24 07:56:08;;;;;;;12.77;7.30;;;;;;;;;;5029289;28;20601;-72
2024/02/24 07:58:34;;;;;;;11.37;7.03;;;;;;;;;;5025692;28;20443;-72
2024/02/24 08:00:59;;;;;;;10.07;7.10;;;;;;;;;;5024581;28;20170;-72
2024/02/24 08:03:24;;;;;;;12.53;7.20;;;;;;;;;;5007401;28;20186;-72
2024/02/24 08:05:49;;;;;;;9.70;6.90;;;;;;;;;;5227265;22;20229;-67
2024/02/24 08:08:14;;;;;;;13.30;6.73;;;;;;;;;;5041716;28;20650;-69
2024/02/24 08:10:40;;;;;;;14.47;7.70;;;;;;;;;;5045891;28;20193;-68
2024/02/24 08:13:05;;;;;;;13.60;7.47;;;;;;;;;;5047147;28;20209;-69
2024/02/24 08:15:30;;;;;;;12.53;7.27;;;;;;;;;;5042853;28;20197;-69
2024/02/24 08:17:55;;;;;;;11.47;7.23;;;;;;;;;;5029039;28;20626;-68
2024/02/24 08:20:20;;;;;;;13.23;7.67;;;;;;;;;;5032624;28;20273;-68
2024/02/24 08:22:47;;;;;;;12.80;7.90;;;;;;;;;;5034745;28;20177;-69
2024/02/24 08:25:12;;;;;;;16.07;7.67;;;;;;;;;;5029534;28;20193;-70
2024/02/24 08:27:37;;;;;;;14.27;8.17;;;;;;;;;;5031254;28;20573;-70
2024/02/24 08:30:03;;;;;;;10.90;7.30;;;;;;;;;;5029254;28;20180;-70
2024/02/24 08:32:29;;;;;;;13.83;8.17;;;;;;;;;;5027603;28;20186;-70
2024/02/24 08:34:55;;;;;;;15.90;8.07;;;;;;;;;;5028145;28;20174;-69
2024/02/24 08:37:20;;;;;;;14.00;8.13;;;;;;;;;;5029844;28;20674;-70
2024/02/24 08:39:45;;;;;;;15.07;9.60;;;;;;;;;;5028022;28;20166;-69
2024/02/24 08:42:10;;;;;;;16.70;8.40;;;;;;;;;;5026538;28;20275;-72
2024/02/24 08:44:35;;;;;;;15.20;9.20;;;;;;;;;;5028838;28;20174;-69
2024/02/24 08:47:01;;;;;;;12.43;8.13;;;;;;;;;;5032725;28;20202;-68
2024/02/24 08:49:26;;;;;;;14.10;8.60;;;;;;;;;;5014662;28;20178;-69
2024/02/24 08:51:51;;;;;;;12.93;8.63;;;;;;;;;;5032339;28;20678;-69
2024/02/24 08:54:20;;;;;;;13.03;7.97;;;;;;;;;;5027965;28;20820;-69
2024/02/24 08:56:45;;;;;;;12.53;8.63;;;;;;;;;;5031223;28;20231;-68
2024/02/24 08:59:11;;;;;;;12.77;7.77;;;;;;;;;;5012830;28;20662;-70
2024/02/24 09:01:36;;;;;;;11.80;7.47;;;;;;;;;;5032751;28;20174;-69
2024/02/24 09:04:03;;;;;;;13.20;7.53;;;;;;;;;;5031151;28;20166;-70
2024/02/24 09:06:31;;;;;;;11.90;6.63;;;;;;;;;;5035783;28;20241;-67
2024/02/24 09:08:56;;;;;;;13.67;7.67;;;;;;;;;;5023829;28;20197;-70
2024/02/24 09:11:21;;;;;;;9.07;6.20;;;;;;;;;;5035452;28;20174;-70
2024/02/24 09:13:47;;;;;;;12.77;7.23;;;;;;;;;;5028937;28;20198;-68
2024/02/24 09:16:15;;;;;;;12.50;7.30;;;;;;;;;;5030848;28;20216;-70
2024/02/24 09:18:41;;;;;;;11.40;7.40;;;;;;;;;;5032857;28;20181;-69
2024/02/24 09:21:08;;;;;;;15.40;7.37;;;;;;;;;;5032747;28;20563;-70
2024/02/24 09:23:34;;;;;;;12.17;7.63;;;;;;;;;;5037504;28;20188;-70
2024/02/24 09:25:59;;;;;;;16.43;8.83;;;;;;;;;;5039364;28;20189;-68
2024/02/24 09:28:25;;;;;;;10.50;7.77;;;;;;;;;;5015562;28;20575;-69
2024/02/24 09:30:51;;;;;;;12.33;7.60;;;;;;;;;;5027338;28;20637;-69
2024/02/24 09:33:16;;;;;;;14.07;8.17;;;;;;;;;;5032728;28;20191;-69
2024/02/24 09:35:42;;;;;;;13.47;7.17;;;;;;;;;;5032875;28;20332;-70
2024/02/24 09:38:07;;;;;;;13.53;7.77;;;;;;;;;;5034038;28;20182;-70
2024/02/24 09:40:32;;;;;;;11.03;6.43;;;;;;;;;;5034566;28;20205;-69
2024/02/24 09:43:03;;;;;;;10.50;6.70;;;;;;;;;;5033617;28;20192;-69
2024/02/24 09:45:32;;;;;;;9.83;6.97;;;;;;;;;;5035672;28;20198;-68
2024/02/24 09:48:00;;;;;;;11.23;7.40;;;;;;;;;;5028292;28;20546;-68
2024/02/24 09:50:25;;;;;;;12.77;7.80;;;;;;;;;;5015716;28;20243;-69
2024/02/24 09:52:50;;;;;;;10.20;7.03;;;;;;;;;;5032166;28;20221;-68
2024/02/24 09:55:16;;;;;;;9.83;7.33;;;;;;;;;;5035185;28;20227;-70
2024/02/24 09:57:41;;;;;;;9.40;6.20;;;;;;;;;;5033529;28;20563;-70
2024/02/24 10:00:07;;;;;;;10.57;7.47;;;;;;;;;;5031878;28;20186;-69
2024/02/24 10:02:32;;;;;;;15.47;6.50;;;;;;;;;;5037487;28;20185;-70
2024/02/24 10:04:58;;;;;;;9.13;5.97;;;;;;;;;;5011308;28;20185;-67
2024/02/24 10:07:23;;;;;;;9.50;6.93;;;;;;;;;;5028542;28;20292;-68
2024/02/24 10:09:48;;;;;;;11.67;6.97;;;;;;;;;;5032887;28;20185;-69
2024/02/24 10:12:14;;;;;;;10.60;6.10;;;;;;;;;;5013658;28;20194;-69
2024/02/24 10:14:39;;;;;;;8.43;6.50;;;;;;;;;;5031491;28;20167;-69
2024/02/24 10:17:04;;;;;;;8.83;5.97;;;;;;;;;;5017952;28;20194;-69
2024/02/24 10:19:31;;;;;;;8.60;5.80;;;;;;;;;;5031689;28;20182;-69
2024/02/24 10:22:04;;;;;;;6.93;5.07;;;;;;;;;;5029384;28;20187;-67
2024/02/24 10:24:29;;;;;;;9.43;6.20;;;;;;;;;;5027287;28;20174;-68
2024/02/24 10:26:55;;;;;;;9.03;6.33;;;;;;;;;;5031276;28;20190;-69
2024/02/24 10:29:20;;;;;;;9.47;4.73;;;;;;;;;;5031561;28;20177;-69
2024/02/24 10:31:49;;;;;;;6.83;4.37;;;;;;;;;;5031167;28;20174;-70
2024/02/24 10:34:15;;;;;;;10.30;4.37;;;;;;;;;;5026767;28;20232;-69
2024/02/24 10:36:41;;;;;;;9.50;5.17;;;;;;;;;;5031868;28;20197;-69
2024/02/24 10:39:06;;;;;;;4.87;3.50;;;;;;;;;;5031870;28;20174;-69
2024/02/24 10:41:32;;;;;;;7.10;3.60;;;;;;;;;;5030853;28;20533;-69
2024/02/24 10:43:58;;;;;;;4.17;2.93;;;;;;;;;;5029604;28;20661;-69
2024/02/24 10:46:23;;;;;;;6.00;3.30;;;;;;;;;;5031140;28;20245;-69
2024/02/24 10:48:49;;;;;;;4.67;3.47;;;;;;;;;;5031561;28;20202;-69
2024/02/24 10:51:14;;;;;;;6.77;3.03;;;;;;;;;;5018071;28;20597;-68
2024/02/24 10:53:44;;;;;;;3.50;2.37;;;;;;;;;;5031110;28;20678;-69
2024/02/24 10:56:10;;;;;;;4.97;3.10;;;;;;;;;;5031227;28;20639;-68
2024/02/24 10:58:36;;;;;;;6.30;3.17;;;;;;;;;;5032395;28;20182;-69
2024/02/24 11:01:01;;;;;;;3.93;2.63;;;;;;;;;;5026852;28;20257;-69
2024/02/24 11:03:26;;;;;;;5.80;2.10;;;;;;;;;;5029613;28;20178;-69
2024/02/24 11:05:52;;;;;;;3.73;2.17;;;;;;;;;;5031932;28;20202;-69
2024/02/24 11:08:37;;;;;;;6.77;2.13;;;;;;;;;;5034533;28;20196;-69
2024/02/24 11:11:08;;;;;;;3.03;2.27;;;;;;;;;;5030728;28;20190;-68
2024/02/24 11:13:33;;;;;;;4.13;2.17;;;;;;;;;;5031001;28;20213;-69
2024/02/24 11:15:59;;;;;;;5.87;1.97;;;;;;;;;;5029744;28;20244;-69
2024/02/24 11:18:47;;;;;;;3.33;2.40;;;;;;;;;;5010969;28;20208;-68
2024/02/24 11:21:13;;;;;;;3.40;2.40;;;;;;;;;;5016326;28;20217;-69
2024/02/24 11:23:42;;;;;;;5.60;3.07;;;;;;;;;;5029928;28;20190;-70
2024/02/24 11:26:12;;;;;;;5.50;2.80;;;;;;;;;;5030457;28;20293;-69
2024/02/24 11:28:38;;;;;;;7.17;2.17;;;;;;;;;;5030460;28;20182;-69
2024/02/24 11:31:03;;;;;;;4.77;3.80;;;;;;;;;;5030414;28;20183;-69
2024/02/24 11:33:36;;;;;;;7.23;2.33;;;;;;;;;;5030712;28;20198;-69
2024/02/24 11:36:03;;;;;;;4.50;2.17;;;;;;;;;;5027878;28;20222;-68
2024/02/24 11:38:28;;;;;;;5.87;2.73;;;;;;;;;;5027527;28;20185;-69
2024/02/24 11:40:54;;;;;;;3.50;2.53;;;;;;;;;;5011720;28;20174;-69
2024/02/24 11:43:20;;;;;;;4.43;2.87;;;;;;;;;;5030454;28;20574;-69
2024/02/24 11:45:45;;;;;;;4.97;3.27;;;;;;;;;;5016528;28;20202;-68
2024/02/24 11:48:10;;;;;;;4.60;3.17;;;;;;;;;;5017065;28;20316;-68
2024/02/24 11:50:36;;;;;;;5.63;2.70;;;;;;;;;;5033599;28;20197;-69
2024/02/24 11:53:02;;;;;;;7.77;3.03;;;;;;;;;;5034143;28;20198;-69
2024/02/24 11:55:27;;;;;;;9.20;3.47;;;;;;;;;;5033759;28;20198;-68
2024/02/24 11:57:52;;;;;;;5.83;3.00;;;;;;;;;;5026629;28;20225;-67
2024/02/24 12:00:19;;;;;;;3.87;2.87;;;;;;;;;;5032884;28;20614;-68
2024/02/24 12:02:44;;;;;;;7.23;3.70;;;;;;;;;;5034225;28;20185;-68
2024/02/24 12:05:15;;;;;;;9.23;3.20;;;;;;;;;;5031767;28;20564;-67
2024/02/24 12:07:41;;;;;;;5.63;2.97;;;;;;;;;;5012618;28;20194;-69
2024/02/24 12:10:07;;;;;;;4.07;2.83;;;;;;;;;;5013654;28;20623;-69
2024/02/24 12:12:32;;;;;;;8.60;3.60;;;;;;;;;;5031156;28;20618;-69
2024/02/24 12:14:57;;;;;;;6.47;3.00;;;;;;;;;;5030277;28;20170;-70
2024/02/24 12:17:23;;;;;;;5.03;2.63;;;;;;;;;;5025650;28;20297;-71
2024/02/24 12:19:49;;;;;;;4.13;2.33;;;;;;;;;;5030032;28;20179;-69
2024/02/24 12:22:14;;;;;;;5.80;2.63;;;;;;;;;;5015664;28;20415;-70
2024/02/24 12:24:39;;;;;;;4.83;2.07;;;;;;;;;;5033708;28;20182;-71
2024/02/24 12:27:07;;;;;;;2.63;2.07;;;;;;;;;;5029506;28;20202;-69
2024/02/24 12:29:32;;;;;;;6.73;2.23;;;;;;;;;;5027147;28;20182;-71
2024/02/24 12:31:58;;;;;;;2.37;2.17;;;;;;;;;;5015038;28;20209;-71
2024/02/24 12:34:24;;;;;;;3.87;2.53;;;;;;;;;;5033213;28;20289;-69
2024/02/24 12:36:53;;;;;;;6.93;2.83;;;;;;;;;;5034561;28;20217;-69
2024/02/24 12:39:18;;;;;;;3.20;2.20;;;;;;;;;;5030524;28;20261;-68
2024/02/24 12:41:44;;;;;;;4.63;2.27;;;;;;;;;;5034967;28;20321;-69
2024/02/24 12:44:10;;;;;;;4.07;2.77;;;;;;;;;;5026481;28;20800;-68
2024/02/24 12:46:36;;;;;;;4.60;2.93;;;;;;;;;;5026413;28;20197;-68
2024/02/24 12:49:01;;;;;;;4.27;3.10;;;;;;;;;;5032672;28;20862;-70
2024/02/24 12:51:26;;;;;;;3.03;2.77;;;;;;;;;;5033942;28;20197;-69
2024/02/24 12:53:51;;;;;;;3.47;2.83;;;;;;;;;;5030559;28;20587;-70
2024/02/24 12:56:16;;;;;;;2.93;2.67;;;;;;;;;;5032846;28;20209;-69
2024/02/24 12:58:43;;;;;;;5.80;2.67;;;;;;;;;;5017113;28;20278;-69
2024/02/24 13:01:09;;;;;;;3.20;2.60;;;;;;;;;;5031104;28;20556;-69
2024/02/24 13:03:34;;;;;;;3.77;2.70;;;;;;;;;;5033560;28;20181;-69
2024/02/24 13:06:00;;;;;;;4.50;2.60;;;;;;;;;;5033032;28;20248;-69
2024/02/24 13:08:26;;;;;;;4.60;2.77;;;;;;;;;;5025736;28;20178;-69
2024/02/24 13:10:51;;;;;;;5.33;2.30;;;;;;;;;;5032000;28;20269;-69
2024/02/24 13:13:16;;;;;;;2.10;1.93;;;;;;;;;;5036433;28;20205;-69
2024/02/24 13:15:42;;;;;;;2.83;2.53;;;;;;;;;;5031844;28;20190;-69
2024/02/24 13:18:07;;;;;;;3.77;3.30;;;;;;;;;;5033527;28;20265;-68
2024/02/24 13:20:32;;;;;;;3.60;3.00;;;;;;;;;;5032646;28;20171;-69
2024/02/24 13:22:58;;;;;;;6.13;3.77;;;;;;;;;;5017985;28;20729;-69
2024/02/24 13:25:23;;;;;;;5.53;4.27;;;;;;;;;;5029075;28;20198;-69
2024/02/24 13:27:48;;;;;;;4.63;3.57;;;;;;;;;;5032138;28;20182;-69
2024/02/24 13:30:13;;;;;;;4.00;3.27;;;;;;;;;;5032868;28;20181;-70
2024/02/24 13:32:39;;;;;;;10.57;3.13;;;;;;;;;;5014477;28;20208;-69
2024/02/24 13:35:05;;;;;;;5.30;3.93;;;;;;;;;;5030894;28;20175;-69
2024/02/24 13:37:30;;;;;;;5.23;3.10;;;;;;;;;;5034298;28;20605;-69
2024/02/24 13:39:55;;;;;;;4.00;2.40;;;;;;;;;;5033000;28;20171;-70
2024/02/24 13:42:20;;;;;;;3.43;2.20;;;;;;;;;;5036617;28;20651;-70
2024/02/24 13:44:46;;;;;;;4.40;2.10;;;;;;;;;;5032849;28;20190;-70
2024/02/24 13:47:11;;;;;;;3.13;2.27;;;;;;;;;;5034405;28;20232;-69
2024/02/24 13:49:36;;;;;;;2.93;2.10;;;;;;;;;;5031295;28;20181;-70
2024/02/24 13:52:03;;;;;;;3.20;2.33;;;;;;;;;;5030451;28;20571;-70
2024/02/24 13:54:29;;;;;;;3.63;1.77;;;;;;;;;;5035240;28;20182;-70
2024/02/24 13:56:57;;;;;;;2.27;1.93;;;;;;;;;;5034179;28;20273;-70
2024/02/24 13:59:23;;;;;;;5.73;2.97;;;;;;;;;;5031835;28;20634;-70
2024/02/24 14:01:49;;;;;;;5.37;2.67;;;;;;;;;;5031457;28;20174;-70
2024/02/24 14:04:14;;;;;;;4.00;2.87;;;;;;;;;;5027739;28;20181;-70
2024/02/24 14:06:40;;;;;;;2.93;2.63;;;;;;;;;;5043925;22;20229;-69
2024/02/24 14:09:06;;;;;;;2.73;2.50;;;;;;;;;;5028315;28;20709;-70
2024/02/24 14:11:31;;;;;;;2.80;2.50;;;;;;;;;;5024949;28;20191;-71
2024/02/24 14:13:57;;;;;;;3.40;3.10;;;;;;;;;;5026089;28;20218;-71
2024/02/24 14:16:22;;;;;;;3.63;2.70;;;;;;;;;;5030459;28;20201;-72
2024/02/24 14:18:47;;;;;;;3.10;2.57;;;;;;;;;;5045591;28;20538;-71
2024/02/24 14:21:13;;;;;;;2.73;2.43;;;;;;;;;;5047354;28;20185;-71
2024/02/24 14:23:38;;;;;;;3.93;2.57;;;;;;;;;;5045879;28;20207;-71
2024/02/24 14:26:04;;;;;;;5.53;2.93;;;;;;;;;;5044155;28;20194;-70
2024/02/24 14:28:29;;;;;;;2.60;2.40;;;;;;;;;;5042243;28;20715;-71